createdAt,value
2018-05-09T00:02:22.373Z,21.20
2018-05-09T00:04:50.459Z,21.67
2018-05-09T00:07:19.244Z,22.20
2018-05-09T00:09:47.322Z,22.80
2018-05-09T00:12:15.419Z,22.53
2018-05-09T00:14:43.555Z,22.73
2018-05-09T00:17:11.647Z,23.07
2018-05-09T00:19:39.715Z,22.50
2018-05-09T00:22:07.835Z,22.87
2018-05-09T00:24:35.941Z,22.83
2018-05-09T00:27:04.025Z,22.57
2018-05-09T00:29:32.155Z,22.50
2018-05-09T00:32:00.236Z,21.93
2018-05-09T00:34:28.326Z,20.77
2018-05-09T00:36:56.433Z,21.40
2018-05-09T00:39:24.531Z,20.70
2018-05-09T00:41:53.300Z,21.20
2018-05-09T00:44:21.399Z,20.60
2018-05-09T00:46:55.151Z,21.50
2018-05-09T00:49:28.720Z,24.50
2018-05-09T00:51:56.823Z,24.90
2018-05-09T00:54:32.576Z,26.60
2018-05-09T00:57:01.542Z,26.77
2018-05-09T00:59:29.647Z,27.77
2018-05-09T01:01:57.754Z,32.20
2018-05-09T01:04:25.840Z,34.67
2018-05-09T01:06:53.981Z,34.43
2018-05-09T01:09:22.073Z,34.13
2018-05-09T01:11:50.242Z,35.73
2018-05-09T01:14:18.330Z,35.03
2018-05-09T01:16:46.418Z,34.47
2018-05-09T01:19:14.522Z,34.80
2018-05-09T01:21:42.652Z,37.27
2018-05-09T01:24:10.758Z,38.70
2018-05-09T01:26:38.876Z,38.67
2018-05-09T01:29:07.028Z,38.70
2018-05-09T01:31:35.140Z,39.27
2018-05-09T01:34:03.255Z,39.07
2018-05-09T01:36:31.335Z,40.07
2018-05-09T01:38:59.454Z,38.43
2018-05-09T01:41:28.311Z,44.63
2018-05-09T01:43:56.423Z,42.40
2018-05-09T01:46:24.548Z,41.20
2018-05-09T01:48:52.664Z,39.63
2018-05-09T01:51:20.754Z,39.70
2018-05-09T01:53:49.303Z,38.60
2018-05-09T01:56:17.406Z,37.80
2018-05-09T01:58:45.576Z,38.50
2018-05-09T02:01:13.670Z,37.93
2018-05-09T02:03:41.765Z,36.83
2018-05-09T02:06:10.363Z,38.20
2018-05-09T02:08:38.453Z,41.63
2018-05-09T02:11:06.544Z,40.77
2018-05-09T02:13:34.661Z,42.37
2018-05-09T02:16:02.764Z,42.83
2018-05-09T02:18:30.910Z,44.80
2018-05-09T02:20:59.058Z,45.43
2018-05-09T02:23:27.155Z,44.30
2018-05-09T02:25:55.264Z,46.73
2018-05-09T02:28:23.368Z,46.63
2018-05-09T02:30:52.351Z,46.33
2018-05-09T02:33:20.470Z,48.27
2018-05-09T02:35:48.547Z,47.43
2018-05-09T02:38:16.657Z,47.43
2018-05-09T02:53:44.769Z,47.37
2018-05-09T02:56:12.860Z,50.43
2018-05-09T02:58:41.004Z,49.13
2018-05-09T03:01:09.112Z,51.37
2018-05-09T03:03:42.704Z,50.47
2018-05-09T03:06:10.822Z,50.40
2018-05-09T03:08:39.247Z,52.03
2018-05-09T03:11:07.399Z,53.17
2018-05-09T03:13:35.487Z,52.60
2018-05-09T03:16:03.634Z,54.53
2018-05-09T03:18:31.730Z,54.00
2018-05-09T03:20:59.860Z,55.70
2018-05-09T03:23:27.996Z,53.23
2018-05-09T03:25:56.154Z,51.33
2018-05-09T03:28:24.245Z,52.30
2018-05-09T03:30:52.386Z,50.50
2018-05-09T03:33:21.298Z,50.77
2018-05-09T03:35:49.393Z,50.27
2018-05-09T03:38:18.518Z,51.30
2018-05-09T03:40:46.630Z,50.70
2018-05-09T03:43:14.718Z,49.07
2018-05-09T03:45:42.836Z,53.67
2018-05-09T03:48:11.644Z,54.47
2018-05-09T03:50:39.790Z,53.03
2018-05-09T03:53:07.931Z,53.27
2018-05-09T03:55:41.661Z,51.80
2018-05-09T03:58:09.789Z,52.90
2018-05-09T04:00:38.286Z,51.70
2018-05-09T04:03:18.100Z,51.57
2018-05-09T04:05:59.215Z,52.80
2018-05-09T04:08:39.119Z,52.17
2018-05-09T04:11:07.207Z,52.60
2018-05-09T04:13:35.291Z,53.03
2018-05-09T04:16:03.387Z,51.60
2018-05-09T04:18:32.243Z,51.77
2018-05-09T04:21:01.193Z,50.50
2018-05-09T04:23:29.235Z,46.47
2018-05-09T04:25:59.055Z,46.60
2018-05-09T04:28:27.150Z,50.53
2018-05-09T04:30:56.066Z,49.87
2018-05-09T04:33:24.157Z,50.20
2018-05-09T04:35:52.249Z,47.13
2018-05-09T04:38:20.357Z,48.60
2018-05-09T04:40:48.448Z,47.90
2018-05-09T04:43:16.536Z,47.47
2018-05-09T04:45:45.219Z,47.13
2018-05-09T04:48:13.354Z,47.23
2018-05-09T04:50:41.442Z,45.60
2018-05-09T04:53:09.543Z,44.70
2018-05-09T04:55:37.745Z,43.87
2018-05-09T04:58:05.772Z,46.30
2018-05-09T05:00:33.903Z,45.33
2018-05-09T05:03:02.609Z,43.77
2018-05-09T05:05:30.706Z,39.90
2018-05-09T05:07:59.508Z,41.70
2018-05-09T05:10:27.601Z,43.97
2018-05-09T05:12:55.695Z,44.07
2018-05-09T05:15:23.795Z,44.20
2018-05-09T05:17:51.916Z,42.67
2018-05-09T05:20:20.750Z,41.27
2018-05-09T05:22:50.161Z,40.13
2018-05-09T05:25:18.275Z,37.83
2018-05-09T05:27:46.378Z,41.63
2018-05-09T05:30:14.473Z,38.47
2018-05-09T05:32:42.601Z,38.87
2018-05-09T05:35:10.715Z,41.00
2018-05-09T05:37:38.864Z,38.00
2018-05-09T05:40:07.160Z,35.90
2018-05-09T05:42:35.267Z,34.87
2018-05-09T05:45:03.401Z,30.37
2018-05-09T05:47:31.736Z,34.70
2018-05-09T05:49:59.831Z,35.03
2018-05-09T05:52:28.343Z,33.50
2018-05-09T05:54:56.439Z,32.20
2018-05-09T05:57:24.534Z,29.90
2018-05-09T05:59:54.163Z,25.40
2018-05-09T06:02:23.815Z,25.37
2018-05-09T06:04:51.907Z,25.10
2018-05-09T06:07:20.795Z,27.07
2018-05-09T06:09:48.899Z,27.17
2018-05-09T06:12:17.496Z,27.73
2018-05-09T06:14:45.591Z,34.07
2018-05-09T06:17:19.158Z,32.77
2018-05-09T06:19:47.251Z,40.80
2018-05-09T06:22:15.341Z,43.23
2018-05-09T06:24:43.541Z,44.20
2018-05-09T06:27:12.578Z,46.00
2018-05-09T06:29:40.675Z,42.97
2018-05-09T06:32:08.775Z,43.77
2018-05-09T06:34:36.867Z,45.97
2018-05-09T06:37:04.971Z,47.03
2018-05-09T06:39:33.083Z,48.47
2018-05-09T06:42:01.212Z,51.60
2018-05-09T06:44:29.318Z,49.47
2018-05-09T06:46:57.419Z,52.63
2018-05-09T06:49:25.523Z,55.83
2018-05-09T06:51:53.623Z,51.30
2018-05-09T06:54:21.757Z,50.90
2018-05-09T06:56:49.845Z,49.80
2018-05-09T06:59:17.935Z,50.33
2018-05-09T07:01:46.039Z,49.63
2018-05-09T07:04:14.198Z,48.57
2018-05-09T07:06:42.615Z,48.60
2018-05-09T07:09:10.471Z,47.13
2018-05-09T07:11:38.702Z,46.23
2018-05-09T07:14:06.789Z,46.13
2018-05-09T07:16:34.891Z,48.83
2018-05-09T07:19:03.032Z,45.60
2018-05-09T07:21:31.163Z,46.43
2018-05-09T07:23:59.264Z,47.97
2018-05-09T07:26:27.370Z,49.03
2018-05-09T07:28:55.494Z,50.83
2018-05-09T07:31:23.602Z,51.93
2018-05-09T07:33:51.687Z,50.30
2018-05-09T07:36:19.811Z,52.77
2018-05-09T07:38:47.923Z,49.83
2018-05-09T07:41:16.017Z,50.40
2018-05-09T07:43:44.123Z,48.27
2018-05-09T07:46:17.892Z,49.43
2018-05-09T07:48:46.001Z,49.87
2018-05-09T07:51:14.141Z,44.97
2018-05-09T07:53:42.247Z,47.40
2018-05-09T07:56:10.370Z,45.60
2018-05-09T07:58:38.465Z,47.40
2018-05-09T08:01:06.591Z,46.37
2018-05-09T08:03:35.261Z,46.90
2018-05-09T08:06:03.386Z,45.37
2018-05-09T08:08:31.447Z,45.00
2018-05-09T08:10:59.562Z,45.70
2018-05-09T08:26:27.690Z,44.37
2018-05-09T08:28:55.808Z,43.17
2018-05-09T08:31:23.920Z,44.77
2018-05-09T08:33:52.018Z,42.50
2018-05-09T08:36:20.962Z,43.13
2018-05-09T08:38:55.100Z,40.73
2018-05-09T08:41:23.216Z,38.23
2018-05-09T08:43:51.479Z,36.50
2018-05-09T08:46:19.472Z,38.20
2018-05-09T08:48:47.578Z,35.97
2018-05-09T08:51:15.692Z,41.17
2018-05-09T08:53:44.050Z,38.40
2018-05-09T08:56:12.180Z,36.90
2018-05-09T08:58:40.276Z,37.77
2018-05-09T09:01:08.364Z,33.20
2018-05-09T09:03:36.564Z,33.40
2018-05-09T09:06:04.632Z,33.03
2018-05-09T09:08:32.741Z,34.60
2018-05-09T09:11:06.518Z,33.87
2018-05-09T09:13:34.616Z,33.00
2018-05-09T09:16:02.737Z,30.77
2018-05-09T09:18:30.876Z,31.93
2018-05-09T09:20:58.918Z,29.73
2018-05-09T09:23:27.037Z,30.17
2018-05-09T09:25:55.138Z,30.40
2018-05-09T09:28:23.233Z,27.83
2018-05-09T09:30:51.354Z,26.13
2018-05-09T09:33:19.441Z,23.90
2018-05-09T09:35:47.543Z,23.47
2018-05-09T09:38:21.084Z,23.97
2018-05-09T09:40:49.246Z,22.60
2018-05-09T09:43:17.674Z,24.83
2018-05-09T09:45:45.751Z,25.87
2018-05-09T09:48:19.376Z,25.97
2018-05-09T09:50:48.134Z,25.60
2018-05-09T09:53:16.246Z,23.70
2018-05-09T09:55:44.330Z,22.67
2018-05-09T09:58:13.276Z,23.90
2018-05-09T10:00:41.377Z,23.10
2018-05-09T10:03:09.480Z,22.47
2018-05-09T10:05:37.596Z,20.83
2018-05-09T10:08:05.780Z,20.53
2018-05-09T10:10:34.418Z,20.23
2018-05-09T10:13:02.536Z,21.47
2018-05-09T10:15:30.671Z,20.43
2018-05-09T10:17:58.808Z,17.77
2018-05-09T10:20:27.198Z,17.90
2018-05-09T10:22:55.295Z,18.60
2018-05-09T10:25:24.438Z,16.70
2018-05-09T10:27:52.554Z,16.63
2018-05-09T10:30:20.807Z,17.87
2018-05-09T10:32:50.512Z,18.73
2018-05-09T10:35:18.632Z,17.73
2018-05-09T10:37:47.526Z,17.10
2018-05-09T10:40:15.636Z,16.67
2018-05-09T10:42:43.962Z,17.07
2018-05-09T10:45:12.068Z,17.93
2018-05-09T10:47:45.654Z,17.70
2018-05-09T10:50:13.768Z,18.87
2018-05-09T10:52:42.462Z,20.43
2018-05-09T10:55:10.595Z,21.37
2018-05-09T10:57:38.740Z,21.77
2018-05-09T11:00:06.847Z,22.70
2018-05-09T11:02:35.208Z,22.00
2018-05-09T11:05:03.305Z,19.37
2018-05-09T11:07:31.365Z,20.83
2018-05-09T11:09:59.478Z,24.07
2018-05-09T11:12:27.605Z,19.17
2018-05-09T11:14:55.662Z,17.80
2018-05-09T11:17:23.765Z,17.50
2018-05-09T11:19:52.551Z,18.23
2018-05-09T11:22:20.656Z,18.03
2018-05-09T11:24:48.744Z,18.07
2018-05-09T11:27:17.977Z,18.20
2018-05-09T11:29:46.076Z,17.37
2018-05-09T11:32:14.192Z,17.53
2018-05-09T11:34:43.193Z,18.43
2018-05-09T11:37:17.018Z,18.10
2018-05-09T11:39:45.080Z,18.30
2018-05-09T11:42:13.193Z,16.77
2018-05-09T11:44:41.499Z,17.47
2018-05-09T11:47:09.579Z,16.67
2018-05-09T11:49:37.694Z,17.00
2018-05-09T11:52:05.820Z,18.27
2018-05-09T11:54:33.918Z,16.80
2018-05-09T11:57:02.077Z,16.70
2018-05-09T11:59:35.562Z,17.57
2018-05-09T12:02:03.712Z,16.37
2018-05-09T12:04:31.817Z,16.67
2018-05-09T12:06:59.910Z,16.50
2018-05-09T12:09:28.025Z,17.03
2018-05-09T12:11:56.123Z,16.50
2018-05-09T12:14:24.234Z,17.93
2018-05-09T12:16:52.322Z,16.73
2018-05-09T12:19:26.059Z,17.60
2018-05-09T12:21:54.169Z,17.67
2018-05-09T12:24:22.272Z,18.03
2018-05-09T12:26:50.399Z,16.83
2018-05-09T12:29:18.798Z,17.57
2018-05-09T12:31:47.811Z,17.90
2018-05-09T12:34:15.930Z,16.40
2018-05-09T12:36:44.047Z,18.13
2018-05-09T12:39:12.421Z,18.77
2018-05-09T12:41:40.511Z,17.93
2018-05-09T12:44:08.608Z,16.90
2018-05-09T12:46:36.741Z,17.23
2018-05-09T12:49:04.940Z,18.30
2018-05-09T12:51:33.084Z,17.23
2018-05-09T12:54:01.183Z,18.40
2018-05-09T12:56:29.298Z,17.60
2018-05-09T12:58:57.401Z,17.53
2018-05-09T13:01:26.083Z,18.13
2018-05-09T13:03:55.109Z,18.23
2018-05-09T13:06:23.216Z,16.80
2018-05-09T13:08:51.336Z,17.03
2018-05-09T13:11:19.436Z,17.53
2018-05-09T13:13:47.548Z,16.50
2018-05-09T13:16:15.684Z,16.83
2018-05-09T13:18:43.792Z,18.30
2018-05-09T13:21:11.898Z,16.87
2018-05-09T13:23:40.044Z,17.10
2018-05-09T13:26:08.204Z,17.17
2018-05-09T13:28:36.325Z,16.60
2018-05-09T13:31:04.466Z,14.90
2018-05-09T13:33:32.584Z,16.20
2018-05-09T13:36:00.868Z,16.63
2018-05-09T13:38:29.736Z,16.73
2018-05-09T13:40:57.880Z,17.10
2018-05-09T13:43:31.414Z,15.03
2018-05-09T13:45:59.868Z,16.13
2018-05-09T13:48:27.968Z,15.00
2018-05-09T13:50:56.063Z,15.07
2018-05-09T13:53:25.094Z,16.33
2018-05-09T13:55:53.198Z,14.30
2018-05-09T13:58:22.201Z,14.37
2018-05-09T14:00:50.342Z,15.27
2018-05-09T14:03:18.413Z,16.07
2018-05-09T14:05:46.577Z,14.90
2018-05-09T14:08:15.363Z,13.60
2018-05-09T14:10:44.484Z,16.17
2018-05-09T14:13:12.583Z,15.60
2018-05-09T14:15:40.680Z,16.50
2018-05-09T14:18:08.771Z,17.00
2018-05-09T14:20:36.886Z,15.67
2018-05-09T14:23:04.999Z,16.33
2018-05-09T14:25:33.112Z,16.40
2018-05-09T14:28:01.222Z,14.83
2018-05-09T14:30:29.313Z,15.53
2018-05-09T14:32:57.404Z,16.73
2018-05-09T14:35:25.512Z,13.90
2018-05-09T14:37:54.240Z,15.60
2018-05-09T14:40:22.346Z,16.47
2018-05-09T14:43:00.027Z,17.53
2018-05-09T14:45:28.118Z,13.93
2018-05-09T14:47:56.435Z,14.90
2018-05-09T14:50:25.052Z,13.30
2018-05-09T14:52:53.654Z,15.07
2018-05-09T14:55:22.379Z,14.00
2018-05-09T14:57:50.486Z,14.30
2018-05-09T15:00:18.656Z,12.57
2018-05-09T15:02:46.695Z,11.60
2018-05-09T15:05:14.791Z,11.90
2018-05-09T15:07:43.842Z,11.70
2018-05-09T15:10:14.527Z,11.63
2018-05-09T15:12:44.091Z,11.47
2018-05-09T15:15:12.280Z,11.13
2018-05-09T15:17:40.759Z,11.53
2018-05-09T15:20:08.863Z,11.83
2018-05-09T15:22:36.967Z,12.37
2018-05-09T15:25:05.110Z,11.80
2018-05-09T15:27:33.230Z,10.33
2018-05-09T15:30:01.344Z,10.87
2018-05-09T15:32:29.431Z,10.47
2018-05-09T15:34:57.535Z,9.77
2018-05-09T15:37:26.630Z,10.70
2018-05-09T15:39:54.743Z,10.40
2018-05-09T15:42:22.852Z,9.10
2018-05-09T15:44:51.087Z,8.57
2018-05-09T15:47:20.283Z,9.30
2018-05-09T15:49:48.387Z,9.30
2018-05-09T15:52:16.483Z,10.07
2018-05-09T15:54:45.110Z,10.20
2018-05-09T15:57:13.208Z,10.07
2018-05-09T15:59:41.330Z,9.00
2018-05-09T16:02:09.928Z,8.87
2018-05-09T16:04:38.018Z,9.70
2018-05-09T16:07:06.119Z,8.97
2018-05-09T16:09:39.662Z,9.00
2018-05-09T16:12:07.758Z,8.23
2018-05-09T16:14:35.854Z,8.80
2018-05-09T16:17:03.981Z,8.57
2018-05-09T16:19:32.161Z,9.60
2018-05-09T16:22:00.201Z,9.17
2018-05-09T16:24:28.304Z,8.83
2018-05-09T16:26:56.406Z,8.90
2018-05-09T16:29:24.527Z,9.37
2018-05-09T16:31:52.620Z,8.20
2018-05-09T16:34:20.992Z,10.10
2018-05-09T16:36:50.095Z,9.97
2018-05-09T16:39:18.185Z,9.37
2018-05-09T16:41:46.306Z,9.73
2018-05-09T16:44:14.420Z,10.50
2018-05-09T16:46:42.530Z,9.93
2018-05-09T16:49:10.644Z,9.70
2018-05-09T16:51:38.769Z,9.80
2018-05-09T16:54:06.870Z,10.60
2018-05-09T16:56:35.076Z,12.60
2018-05-09T16:59:03.195Z,10.83
2018-05-09T17:01:31.395Z,11.30
2018-05-09T17:03:59.440Z,10.60
2018-05-09T17:06:33.050Z,10.53
2018-05-09T17:09:06.748Z,10.30
2018-05-09T17:11:35.170Z,10.97
2018-05-09T17:14:03.252Z,9.93
2018-05-09T17:16:31.375Z,10.83
2018-05-09T17:18:59.481Z,10.83
2018-05-09T17:21:39.412Z,10.60
2018-05-09T17:24:07.516Z,10.03
2018-05-09T17:26:35.671Z,10.30
2018-05-09T17:29:03.906Z,9.70
2018-05-09T17:31:31.996Z,8.93
2018-05-09T17:34:00.111Z,9.17
2018-05-09T17:36:28.272Z,9.37
2018-05-09T17:38:56.337Z,8.70
2018-05-09T17:41:24.689Z,8.37
2018-05-09T17:43:52.836Z,8.43
2018-05-09T17:46:20.924Z,8.00
2018-05-09T17:48:49.012Z,8.87
2018-05-09T17:51:17.169Z,7.87
2018-05-09T17:53:45.272Z,7.77
2018-05-09T17:56:13.851Z,8.13
2018-05-09T17:58:42.045Z,6.67
2018-05-09T18:01:10.113Z,6.80
2018-05-09T18:03:38.177Z,7.07
2018-05-09T18:06:06.287Z,7.60
2018-05-09T18:08:34.414Z,7.30
2018-05-09T18:11:02.487Z,7.67
2018-05-09T18:13:30.611Z,8.63
2018-05-09T18:15:58.712Z,8.57
2018-05-09T18:18:26.819Z,9.57
2018-05-09T18:20:55.264Z,8.03
2018-05-09T18:23:23.364Z,8.23
2018-05-09T18:25:51.466Z,9.20
2018-05-09T18:28:19.569Z,9.93
2018-05-09T18:30:47.675Z,10.37
2018-05-09T18:33:15.789Z,9.43
2018-05-09T18:35:43.895Z,10.37
2018-05-09T18:38:12.219Z,9.90
2018-05-09T18:40:40.312Z,9.70
2018-05-09T18:43:08.432Z,9.13
2018-05-09T18:45:36.640Z,10.07
2018-05-09T18:48:10.433Z,11.30
2018-05-09T18:50:38.522Z,10.47
2018-05-09T18:53:06.634Z,10.17
2018-05-09T18:55:34.790Z,10.90
2018-05-09T18:58:02.932Z,11.27
2018-05-09T19:00:31.092Z,12.07
2018-05-09T19:02:59.191Z,11.73
2018-05-09T19:05:27.320Z,12.23
2018-05-09T19:07:56.157Z,12.70
2018-05-09T19:10:24.261Z,12.03
2018-05-09T19:12:52.386Z,13.30
2018-05-09T19:15:20.502Z,12.37
2018-05-09T19:17:48.599Z,12.10
2018-05-09T19:20:17.083Z,12.07
2018-05-09T19:22:45.220Z,12.93
2018-05-09T19:25:13.306Z,11.97
2018-05-09T19:27:41.405Z,10.90
2018-05-09T19:30:09.506Z,12.17
2018-05-09T19:32:37.623Z,12.07
2018-05-09T19:35:05.730Z,13.23
2018-05-09T19:37:34.445Z,12.10
2018-05-09T19:40:02.539Z,13.80
2018-05-09T19:42:31.179Z,13.03
2018-05-09T19:44:59.580Z,14.03
2018-05-09T19:47:27.693Z,13.17
2018-05-09T19:49:56.354Z,11.87
2018-05-09T19:52:24.460Z,12.63
2018-05-09T19:54:52.606Z,13.53
2018-05-09T19:57:20.730Z,13.63
2018-05-09T19:59:49.120Z,14.93
2018-05-09T20:02:17.214Z,15.03
2018-05-09T20:04:45.372Z,15.07
2018-05-09T20:07:13.503Z,15.17
2018-05-09T20:09:47.077Z,14.93
2018-05-09T20:12:15.194Z,15.13
2018-05-09T20:14:43.439Z,15.93
2018-05-09T20:17:11.613Z,16.63
2018-05-09T20:19:39.757Z,16.33
2018-05-09T20:22:13.308Z,16.10
2018-05-09T20:24:47.157Z,17.43
2018-05-09T20:27:15.275Z,19.80
2018-05-09T20:29:44.681Z,20.20
2018-05-09T20:32:25.037Z,20.70
2018-05-09T20:34:53.151Z,22.43
2018-05-09T20:37:21.252Z,21.30
2018-05-09T20:39:49.395Z,21.40
2018-05-09T20:42:18.412Z,22.17
2018-05-09T20:44:46.514Z,22.40
2018-05-09T20:47:14.624Z,21.47
2018-05-09T20:49:42.997Z,22.77
2018-05-09T20:52:11.467Z,21.67
2018-05-09T20:54:39.569Z,21.17
2018-05-09T20:57:07.704Z,21.77
2018-05-09T20:59:35.805Z,21.47
2018-05-09T21:02:03.923Z,20.33
2018-05-09T21:04:32.333Z,19.50
2018-05-09T21:07:00.719Z,20.17
2018-05-09T21:09:28.907Z,19.33
2018-05-09T21:12:08.782Z,18.93
2018-05-09T21:14:36.978Z,18.53
2018-05-09T21:17:05.024Z,18.50
2018-05-09T21:19:33.140Z,18.40
2018-05-09T21:22:01.264Z,18.67
2018-05-09T21:24:29.413Z,17.30
2018-05-09T21:26:58.295Z,17.27
2018-05-09T21:29:26.435Z,15.97
2018-05-09T21:31:54.533Z,15.30
2018-05-09T21:34:22.717Z,15.77
2018-05-09T21:36:50.839Z,16.07
2018-05-09T21:39:19.272Z,15.73
2018-05-09T21:41:47.368Z,15.40
2018-05-09T21:44:15.486Z,16.33
2018-05-09T21:46:43.593Z,16.13
2018-05-09T21:49:11.684Z,14.57
2018-05-09T21:51:39.909Z,16.07
2018-05-09T21:54:07.996Z,15.17
2018-05-09T22:09:36.179Z,17.13
2018-05-09T22:12:05.320Z,16.10
2018-05-09T22:14:33.403Z,17.20
2018-05-09T22:17:01.523Z,17.20
2018-05-09T22:19:30.687Z,16.67
2018-05-09T22:21:58.788Z,17.63
2018-05-09T22:24:26.887Z,18.70
2018-05-09T22:26:55.010Z,17.47
2018-05-09T22:29:23.172Z,17.17
2018-05-09T22:31:51.315Z,15.30
2018-05-09T22:34:19.436Z,13.30
2018-05-09T22:36:47.523Z,11.60
2018-05-09T22:39:16.411Z,11.07
2018-05-09T22:41:44.507Z,10.30
2018-05-09T22:44:12.599Z,10.50
2018-05-09T22:46:40.751Z,11.07
2018-05-09T22:49:08.847Z,10.53
2018-05-09T22:51:36.963Z,9.73
2018-05-09T22:54:06.039Z,9.97
2018-05-09T22:56:34.133Z,9.63
2018-05-09T22:59:02.215Z,9.67
2018-05-09T23:01:30.363Z,10.10
2018-05-09T23:03:58.491Z,9.60
2018-05-09T23:06:26.587Z,10.33
2018-05-09T23:08:54.729Z,11.60
2018-05-09T23:11:22.842Z,11.03
2018-05-09T23:13:50.978Z,10.60
2018-05-09T23:16:19.082Z,11.77
2018-05-09T23:18:47.177Z,9.97
2018-05-09T23:21:15.267Z,11.23
2018-05-09T23:23:43.535Z,11.23
2018-05-09T23:26:11.631Z,10.27
2018-05-09T23:28:39.771Z,9.97
2018-05-09T23:31:07.886Z,10.27
2018-05-09T23:33:36.705Z,10.27
2018-05-09T23:36:04.824Z,10.03
2018-05-09T23:38:32.932Z,9.67
2018-05-09T23:41:01.025Z,9.63
2018-05-09T23:43:29.133Z,10.07
2018-05-09T23:45:57.223Z,10.53
2018-05-09T23:48:25.622Z,11.10
2018-05-09T23:50:53.699Z,11.40
2018-05-09T23:53:21.843Z,11.37
2018-05-09T23:55:50.033Z,12.37
2018-05-09T23:58:18.055Z,11.70
